Cantil, CA (93519)

8:26 AM PDT on September 30, 2014 (GMT -0700)
Red Rock Canyon | Change Station
CLOSE
Current Station
Personal Weather Station
Location: Cantil, CA
Elevation: 2592 ft
Nearby Weather Stations

Elev 2592 ft 35.37 °N, 117.99 °W | Updated 1 minute ago

Clear
Clear
60.7 °F
Feels Like 60.7 °F
N
0.0
Wind Variable Wind from North
Gusts 2.0 mph

Today
High -- | Low -- °F
--% Chance of Precip.
Yesterday
High -- | Low -- °F
Precip. -- in
6:45 AM 6:36 PM
Waxing Crescent, 37% visible
Pressure 29.97 in
Visibility 10.0 miles
Clouds Clear
Dew Point 42 °F
Humidity 50%
Rainfall 0.00 in
Snow Depth 0 in , 2 in , 0 in
UV 1 out of 12
Pollen 5.60 out of 12
Ozone Good
Flu Activity Not available.
METAR KMHV 301515Z AUTO 00000KT 10SM CLR 15/05 A2997 RMK AO1

More Conditions Fewer Conditions

Pressure 29.97 in
Visibility 10.0 miles
Clouds Clear
Dew Point 42 °F
Humidity 50%
Rainfall 0.00 in
Snow Depth 0 in , 2 in , 0 in
UV 1 out of 12
Pollen 5.60 out of 12
Ozone Good
Flu Activity Not available.
METAR KMHV 301515Z AUTO 00000KT 10SM CLR 15/05 A2997 RMK AO1

More Conditions Fewer Conditions

10-Day Weather Forecast

Almanac

Astronomy

Sep. 30, 2014 Rise Set
Actual Time 6:45 AM PDT 6:36 PM PDT
Civil Twilight 6:20 AM PDT 7:02 PM PDT
Nautical Twilight 5:51 AM PDT 7:31 PM PDT
Astronomical Twilight 5:21 AM PDT 8:01 PM PDT
Moon 12:48 PM PDT 11:21 PM PDT
Length of Visible Light 12h 41m
Length of Day
11h 50m
Tomorrow will be 2m 11s shorter.
Waxing Crescent, 37% of the Moon is Illuminated
Today
Waxing Crescent
Oct 1
First Quarter
Oct 8
Full
Oct 15
Last Quarter
Oct 23
New

Today's Extremes

State Highs State Lows

Community

WunderPhotos

Upload Photos

1,757,668 photos uploaded!

WunderBlogs® & News

Nearby

Air Quality

  Air Quality AQ Index Pollutant
Yesterday Good
OZONE
Current Good
OZONE
Tuesday Good
PM10
Tuesday Good
OZONE
Tuesday Good
CO
Tuesday Good
NO2

Snow Depth

Station Depth Elevation
Crowder Flat 0 in 5100 ft
Burnside Lake 2 in 8139 ft
Sonora Pass 0 in 8800 ft
Squaw Valley 0 in 8200 ft
Fallen Leaf 0 in 6300 ft

Earthquake Activity

City Distance Mag. Time & Date
No recent earthquake activity has been reported nearby.
Minimum magnitude displayed is 2.5.

Coastal Water Temperatures

Place Temperature
No Stations Reporting

Nearby Weather Stations